West Brunswick, Pennsylvania
Current Conditions -  °F | °C
As of 5:54 AM on Friday 19 Dec 2014 (Local Time) from KRDG Reporting Station
Overcast Overcast  
Wind Chill: 29°   Ceiling: 3200
Heat Index: 35°   Visibility: 10mi
Dew Point: 24°   Wind: 7mph
Humidity: 64%   Direction: 280°W
Pressure: 30.04"   Gusts: NA
Location:  40.633°N, 76.068°W
Report Text: KRDG 191054Z 28006KT 10SM OVC032 02/M04 A3004 RMK AO2 SLP179 T00171044
Loading
Personal Weather Stations






























Interactive Weather Map New forecast layout! Learn more

10-Day Weather Forecast

Advertisements
Track Severe Weather on mobile